sensor_id;sensor_type;location;lat;lon;timestamp;P1;durP1;ratioP1;P2;durP2;ratioP2
15234;SDS011;7720;51.926;4.488;2023-05-02T14:06:32;6.10;;;1.65;;
15234;SDS011;7720;51.926;4.488;2023-05-02T14:11:37;4.75;;;2.10;;
15234;SDS011;7720;51.926;4.488;2023-05-02T14:16:41;5.05;;;2.05;;
15234;SDS011;7720;51.926;4.488;2023-05-02T14:21:46;4.68;;;1.88;;
15234;SDS011;7720;51.926;4.488;2023-05-02T14:26:50;6.38;;;1.77;;
15234;SDS011;7720;51.926;4.488;2023-05-02T14:31:54;4.65;;;1.77;;
15234;SDS011;7720;51.926;4.488;2023-05-02T14:36:59;4.70;;;2.15;;
15234;SDS011;7720;51.926;4.488;2023-05-02T14:42:03;5.43;;;1.70;;
15234;SDS011;7720;51.926;4.488;2023-05-02T14:47:07;6.40;;;2.03;;
15234;SDS011;7720;51.926;4.488;2023-05-02T14:52:14;6.05;;;2.17;;
15234;SDS011;7720;51.926;4.488;2023-05-02T14:57:18;10.15;;;2.80;;
15234;SDS011;7720;51.926;4.488;2023-05-02T15:02:24;10.30;;;2.70;;
15234;SDS011;7720;51.926;4.488;2023-05-02T15:07:29;7.10;;;2.65;;
15234;SDS011;7720;51.926;4.488;2023-05-02T15:12:33;5.45;;;2.13;;
15234;SDS011;7720;51.926;4.488;2023-05-02T15:17:37;5.63;;;2.60;;
15234;SDS011;7720;51.926;4.488;2023-05-02T15:22:42;7.72;;;2.10;;
15234;SDS011;7720;51.926;4.488;2023-05-02T15:27:46;10.32;;;2.97;;
15234;SDS011;7720;51.926;4.488;2023-05-02T15:32:50;6.03;;;2.70;;
15234;SDS011;7720;51.926;4.488;2023-05-02T15:37:55;12.18;;;3.80;;
15234;SDS011;7720;51.926;4.488;2023-05-02T15:42:59;6.05;;;2.53;;
15234;SDS011;7720;51.926;4.488;2023-05-02T15:48:02;8.30;;;2.72;;
15234;SDS011;7720;51.926;4.488;2023-05-02T15:53:07;6.55;;;2.20;;
15234;SDS011;7720;51.926;4.488;2023-05-02T15:58:11;7.10;;;2.40;;
15234;SDS011;7720;51.926;4.488;2023-05-02T16:03:16;7.93;;;2.00;;
15234;SDS011;7720;51.926;4.488;2023-05-02T16:08:21;8.82;;;2.40;;
15234;SDS011;7720;51.926;4.488;2023-05-02T16:13:25;8.00;;;3.47;;
15234;SDS011;7720;51.926;4.488;2023-05-02T16:18:29;9.77;;;3.65;;
15234;SDS011;7720;51.926;4.488;2023-05-02T16:23:34;7.25;;;3.00;;
15234;SDS011;7720;51.926;4.488;2023-05-02T16:28:38;7.05;;;2.42;;
15234;SDS011;7720;51.926;4.488;2023-05-02T16:33:42;4.93;;;2.20;;
15234;SDS011;7720;51.926;4.488;2023-05-02T16:38:47;10.73;;;2.90;;
15234;SDS011;7720;51.926;4.488;2023-05-02T16:43:51;7.40;;;2.33;;
15234;SDS011;7720;51.926;4.488;2023-05-02T16:48:55;8.60;;;2.42;;
15234;SDS011;7720;51.926;4.488;2023-05-02T16:54:00;6.15;;;2.03;;
15234;SDS011;7720;51.926;4.488;2023-05-02T16:59:04;3.40;;;2.08;;
15234;SDS011;7720;51.926;4.488;2023-05-02T17:04:08;7.10;;;2.47;;
15234;SDS011;7720;51.926;4.488;2023-05-02T17:09:13;8.32;;;2.75;;
15234;SDS011;7720;51.926;4.488;2023-05-02T17:14:16;4.13;;;1.60;;
15234;SDS011;7720;51.926;4.488;2023-05-02T17:19:20;4.32;;;1.90;;
15234;SDS011;7720;51.926;4.488;2023-05-02T17:24:26;5.38;;;1.40;;
15234;SDS011;7720;51.926;4.488;2023-05-02T17:29:30;6.32;;;1.80;;
15234;SDS011;7720;51.926;4.488;2023-05-02T17:34:34;3.72;;;1.77;;
15234;SDS011;7720;51.926;4.488;2023-05-02T17:39:39;3.92;;;1.63;;
15234;SDS011;7720;51.926;4.488;2023-05-02T17:44:42;4.28;;;1.63;;
15234;SDS011;7720;51.926;4.488;2023-05-02T17:49:48;6.35;;;2.08;;
15234;SDS011;7720;51.926;4.488;2023-05-02T17:54:54;4.03;;;1.73;;
15234;SDS011;7720;51.926;4.488;2023-05-02T17:59:58;5.53;;;1.75;;
15234;SDS011;7720;51.926;4.488;2023-05-02T18:05:05;2.85;;;1.65;;
15234;SDS011;7720;51.926;4.488;2023-05-02T18:10:10;7.00;;;1.73;;
15234;SDS011;7720;51.926;4.488;2023-05-02T18:15:14;6.18;;;2.60;;
15234;SDS011;7720;51.926;4.488;2023-05-02T18:20:17;6.22;;;2.50;;
15234;SDS011;7720;51.926;4.488;2023-05-02T18:25:23;3.22;;;1.50;;
15234;SDS011;7720;51.926;4.488;2023-05-02T18:30:27;4.15;;;1.73;;
15234;SDS011;7720;51.926;4.488;2023-05-02T18:35:31;7.60;;;1.60;;
15234;SDS011;7720;51.926;4.488;2023-05-02T18:40:36;3.13;;;1.50;;
15234;SDS011;7720;51.926;4.488;2023-05-02T18:45:39;3.60;;;1.60;;
15234;SDS011;7720;51.926;4.488;2023-05-02T18:50:44;6.43;;;1.60;;
15234;SDS011;7720;51.926;4.488;2023-05-02T18:55:49;5.13;;;1.67;;
15234;SDS011;7720;51.926;4.488;2023-05-02T19:00:53;7.35;;;1.67;;
15234;SDS011;7720;51.926;4.488;2023-05-02T19:05:56;4.45;;;2.00;;
15234;SDS011;7720;51.926;4.488;2023-05-02T19:11:01;2.38;;;1.35;;
15234;SDS011;7720;51.926;4.488;2023-05-02T19:16:08;5.10;;;1.70;;
15234;SDS011;7720;51.926;4.488;2023-05-02T19:21:13;2.83;;;1.60;;
15234;SDS011;7720;51.926;4.488;2023-05-02T19:26:18;3.70;;;1.35;;
15234;SDS011;7720;51.926;4.488;2023-05-02T19:31:21;4.93;;;1.30;;
15234;SDS011;7720;51.926;4.488;2023-05-02T19:36:25;4.18;;;1.38;;
15234;SDS011;7720;51.926;4.488;2023-05-02T19:41:30;3.38;;;1.50;;
15234;SDS011;7720;51.926;4.488;2023-05-02T19:46:34;3.53;;;1.48;;
15234;SDS011;7720;51.926;4.488;2023-05-02T19:51:38;4.47;;;1.38;;
15234;SDS011;7720;51.926;4.488;2023-05-02T19:56:43;5.10;;;1.67;;
15234;SDS011;7720;51.926;4.488;2023-05-02T20:01:49;4.88;;;1.55;;
15234;SDS011;7720;51.926;4.488;2023-05-02T20:06:53;5.78;;;1.33;;
15234;SDS011;7720;51.926;4.488;2023-05-02T20:11:58;2.80;;;1.52;;
15234;SDS011;7720;51.926;4.488;2023-05-02T20:17:01;3.88;;;1.48;;
15234;SDS011;7720;51.926;4.488;2023-05-02T20:22:06;3.53;;;1.50;;
15234;SDS011;7720;51.926;4.488;2023-05-02T20:27:11;3.22;;;1.60;;
15234;SDS011;7720;51.926;4.488;2023-05-02T20:32:14;2.58;;;1.02;;
15234;SDS011;7720;51.926;4.488;2023-05-02T20:37:18;2.47;;;1.50;;
15234;SDS011;7720;51.926;4.488;2023-05-02T20:42:24;4.25;;;1.50;;
15234;SDS011;7720;51.926;4.488;2023-05-02T20:47:28;3.17;;;1.50;;
15234;SDS011;7720;51.926;4.488;2023-05-02T20:52:32;2.83;;;1.40;;
15234;SDS011;7720;51.926;4.488;2023-05-02T20:57:37;4.47;;;1.20;;
15234;SDS011;7720;51.926;4.488;2023-05-02T21:02:41;4.95;;;1.10;;
15234;SDS011;7720;51.926;4.488;2023-05-02T21:07:44;1.85;;;1.30;;
15234;SDS011;7720;51.926;4.488;2023-05-02T21:12:49;2.50;;;1.20;;
15234;SDS011;7720;51.926;4.488;2023-05-02T21:17:59;4.93;;;2.03;;
15234;SDS011;7720;51.926;4.488;2023-05-02T21:23:03;4.18;;;1.20;;
15234;SDS011;7720;51.926;4.488;2023-05-02T21:28:08;3.15;;;1.70;;
15234;SDS011;7720;51.926;4.488;2023-05-02T21:33:13;3.08;;;1.25;;
15234;SDS011;7720;51.926;4.488;2023-05-02T21:38:18;2.55;;;1.30;;
15234;SDS011;7720;51.926;4.488;2023-05-02T21:43:23;2.10;;;1.20;;
15234;SDS011;7720;51.926;4.488;2023-05-02T21:48:26;3.50;;;1.27;;
15234;SDS011;7720;51.926;4.488;2023-05-02T21:53:30;3.90;;;1.30;;
15234;SDS011;7720;51.926;4.488;2023-05-02T21:58:35;3.10;;;1.45;;
15234;SDS011;7720;51.926;4.488;2023-05-02T22:03:38;3.80;;;1.27;;
15234;SDS011;7720;51.926;4.488;2023-05-02T22:08:43;5.85;;;1.40;;
15234;SDS011;7720;51.926;4.488;2023-05-02T22:13:48;4.70;;;1.38;;
15234;SDS011;7720;51.926;4.488;2023-05-02T22:18:52;3.08;;;1.45;;
15234;SDS011;7720;51.926;4.488;2023-05-02T22:23:58;3.53;;;1.50;;
15234;SDS011;7720;51.926;4.488;2023-05-02T22:29:03;2.90;;;1.60;;
15234;SDS011;7720;51.926;4.488;2023-05-02T22:34:07;3.90;;;1.63;;
15234;SDS011;7720;51.926;4.488;2023-05-02T22:39:11;3.50;;;1.80;;
15234;SDS011;7720;51.926;4.488;2023-05-02T22:44:17;3.90;;;1.80;;
15234;SDS011;7720;51.926;4.488;2023-05-02T22:49:21;4.45;;;1.77;;
15234;SDS011;7720;51.926;4.488;2023-05-02T22:54:24;4.60;;;1.83;;
15234;SDS011;7720;51.926;4.488;2023-05-02T22:59:29;2.33;;;1.60;;
15234;SDS011;7720;51.926;4.488;2023-05-02T23:04:33;2.72;;;1.92;;
15234;SDS011;7720;51.926;4.488;2023-05-02T23:09:36;3.45;;;1.90;;
15234;SDS011;7720;51.926;4.488;2023-05-02T23:14:42;6.28;;;2.20;;
15234;SDS011;7720;51.926;4.488;2023-05-02T23:19:46;5.35;;;2.00;;
15234;SDS011;7720;51.926;4.488;2023-05-02T23:24:50;5.03;;;2.20;;
15234;SDS011;7720;51.926;4.488;2023-05-02T23:29:55;3.35;;;1.80;;
15234;SDS011;7720;51.926;4.488;2023-05-02T23:34:59;4.85;;;2.30;;
15234;SDS011;7720;51.926;4.488;2023-05-02T23:45:34;5.75;;;2.28;;
15234;SDS011;7720;51.926;4.488;2023-05-02T23:50:38;5.82;;;2.35;;
15234;SDS011;7720;51.926;4.488;2023-05-02T23:55:41;3.88;;;2.00;;
